Time;durP1;ratioP1;P1;durP2;ratioP2;P2;SDS_P1;SDS_P2;PMS_P1;PMS_P2;Temp;Humidity;BMP_temperature;BMP_pressure;BME280_temperature;BME280_humidity;BME280_pressure;Samples;Min_cycle;Max_cycle;Signal;HPM_P1;HPM_P2
2022/10/15 00:01:20;;;;;;;;;;;;;;;14.51;100.00;97486.34;5094878;28;19955;-71
2022/10/15 00:03:47;;;;;;;;;;;;;;;14.46;100.00;97481.06;5076539;28;19929;-70
2022/10/15 00:06:15;;;;;;;;;;;;;;;14.47;100.00;97477.28;5076533;28;19924;-71
2022/10/15 00:08:42;;;;;;;;;;;;;;;14.44;100.00;97477.88;5078644;28;19934;-70
2022/10/15 00:11:10;;;;;;;;;;;;;;;14.52;100.00;97469.13;5079841;28;19988;-71
2022/10/15 00:13:37;;;;;;;;;;;;;;;14.45;100.00;97474.88;5090624;28;19986;-70
2022/10/15 00:16:03;;;;;;;;;;;;;;;14.45;100.00;97466.06;5076306;28;19928;-71
2022/10/15 00:18:30;;;;;;;;;;;;;;;14.46;100.00;97463.06;5078561;28;20031;-71
2022/10/15 00:20:56;;;;;;;;;;;;;;;14.40;100.00;97456.19;5079620;28;19999;-71
2022/10/15 00:23:24;;;;;;;;;;;;;;;14.39;100.00;97449.22;5078202;28;19935;-71
2022/10/15 00:25:50;;;;;;;;;;;;;;;14.33;100.00;97455.78;5076230;28;19935;-70
2022/10/15 00:28:16;;;;;;;;;;;;;;;14.37;100.00;97451.41;5076712;28;19991;-70
2022/10/15 00:30:43;;;;;;;;;;;;;;;14.30;100.00;97450.16;5079958;28;19967;-71
2022/10/15 00:33:09;;;;;;;;;;;;;;;14.28;100.00;97450.47;5095679;28;20581;-71
2022/10/15 00:35:35;;;;;;;;;;;;;;;14.30;100.00;97442.09;5076770;28;19924;-70
2022/10/15 00:38:02;;;;;;;;;;;;;;;14.32;100.00;97448.00;5074877;28;19935;-70
2022/10/15 00:40:30;;;;;;;;;;;;;;;14.29;100.00;97446.72;5078422;28;19936;-70
2022/10/15 00:42:56;;;;;;;;;;;;;;;14.36;100.00;97439.06;5079381;28;20262;-71
2022/10/15 00:45:23;;;;;;;;;;;;;;;14.39;100.00;97440.38;5078079;28;19925;-71
2022/10/15 00:47:50;;;;;;;;;;;;;;;14.51;100.00;97448.72;5076131;28;19987;-70
2022/10/15 00:50:18;;;;;;;;;;;;;;;14.72;100.00;97447.22;5076954;28;19955;-71
2022/10/15 00:52:50;;;;;;;;;;;;;;;14.62;100.00;97433.19;5079664;28;19993;-70
2022/10/15 00:55:18;;;;;;;;;;;;;;;14.48;100.00;97439.34;5078966;28;19920;-71
2022/10/15 00:57:47;;;;;;;;;;;;;;;14.44;100.00;97427.63;5076007;28;19948;-70
2022/10/15 01:00:15;;;;;;;;;;;;;;;14.37;100.00;97427.22;5074873;28;19948;-71
2022/10/15 01:02:41;;;;;;;;;;;;;;;14.33;100.00;97420.06;5078959;28;20132;-71
2022/10/15 01:05:08;;;;;;;;;;;;;;;14.33;100.00;97428.13;5079042;28;19995;-71
2022/10/15 01:07:35;;;;;;;;;;;;;;;14.26;100.00;97419.66;5076146;28;20352;-70
2022/10/15 01:10:02;;;;;;;;;;;;;;;14.39;100.00;97426.94;5075175;28;19964;-70
2022/10/15 01:12:38;;;;;;;;;;;;;;;14.43;100.00;97425.22;5077346;28;19959;-70
2022/10/15 01:15:09;;;;;;;;;;;;;;;14.38;100.00;97419.97;5078434;28;19988;-69
2022/10/15 01:17:40;;;;;;;;;;;;;;;14.44;100.00;97413.41;5075431;28;19948;-70
2022/10/15 01:20:22;;;;;;;;;;;;;;;14.39;100.00;97405.47;5075184;28;19959;-70
2022/10/15 01:22:57;;;;;;;;;;;;;;;14.41;100.00;97397.88;5071718;28;19964;-70
2022/10/15 01:25:31;;;;;;;;;;;;;;;14.40;100.00;97396.28;5076885;28;19932;-70
2022/10/15 01:28:01;;;;;;;;;;;;;;;14.35;100.00;97399.09;5076193;28;19967;-70
2022/10/15 01:30:33;;;;;;;;;;;;;;;14.36;100.00;97398.00;5077645;28;19936;-70
2022/10/15 01:33:24;;;;;;;;;;;;;;;14.46;100.00;97390.50;5079080;28;19924;-71
2022/10/15 01:35:52;;;;;;;;;;;;;;;14.25;100.00;97375.06;5069458;28;19929;-70
2022/10/15 01:38:33;;;;;;;;;;;;;;;14.23;100.00;97379.97;5076318;28;19988;-70
2022/10/15 01:41:03;;;;;;;;;;;;;;;14.11;100.00;97372.41;5076413;28;19988;-71
2022/10/15 01:43:33;;;;;;;;;;;;;;;14.11;100.00;97371.59;5076902;28;19925;-70
2022/10/15 01:46:04;;;;;;;;;;;;;;;14.06;100.00;97380.53;5074638;28;19925;-70
2022/10/15 01:48:31;;;;;;;;;;;;;;;14.10;100.00;97386.13;5077692;28;19948;-70
2022/10/15 01:51:00;;;;;;;;;;;;;;;14.02;100.00;97363.44;5078658;28;19932;-71
2022/10/15 01:53:27;;;;;;;;;;;;;;;14.03;100.00;97365.84;5076576;28;20384;-71
2022/10/15 01:55:56;;;;;;;;;;;;;;;14.14;100.00;97365.63;5074609;28;20284;-71
2022/10/15 01:58:23;;;;;;;;;;;;;;;14.16;100.00;97363.44;5076137;28;19982;-70
2022/10/15 02:00:51;;;;;;;;;;;;;;;14.05;100.00;97366.31;5078133;28;19991;-70
2022/10/15 02:03:19;;;;;;;;;;;;;;;14.03;100.00;97354.28;5077356;28;20100;-70
2022/10/15 02:05:48;;;;;;;;;;;;;;;14.19;100.00;97357.47;5074342;28;19988;-71
2022/10/15 02:08:19;;;;;;;;;;;;;;;14.11;100.00;97350.13;5073184;28;19924;-70
2022/10/15 02:10:49;;;;;;;;;;;;;;;14.20;100.00;97359.06;5093731;28;19954;-70
2022/10/15 02:13:21;;;;;;;;;;;;;;;14.35;100.00;97358.78;5077691;28;19950;-71
2022/10/15 02:15:54;;;;;;;;;;;;;;;14.49;100.00;97351.50;5074665;28;19978;-71
2022/10/15 02:18:28;;;;;;;;;;;;;;;14.31;100.00;97347.00;5074903;28;19929;-71
2022/10/15 02:20:58;;;;;;;;;;;;;;;14.23;100.00;97348.53;5077647;28;19924;-71
2022/10/15 02:23:27;;;;;;;;;;;;;;;14.35;100.00;97337.31;5076096;28;19932;-70
2022/10/15 02:25:54;;;;;;;;;;;;;;;14.26;100.00;97339.06;5090061;28;19934;-71
2022/10/15 02:28:24;;;;;;;;;;;;;;;14.21;100.00;97339.16;5075482;28;19936;-71
2022/10/15 02:30:51;;;;;;;;;;;;;;;14.27;100.00;97337.97;5077798;28;19946;-71
2022/10/15 02:33:19;;;;;;;;;;;;;;;14.28;100.00;97328.81;5077101;28;19992;-71
2022/10/15 02:35:48;;;;;;;;;;;;;;;14.21;100.00;97331.09;5073313;28;19952;-70
2022/10/15 02:38:17;;;;;;;;;;;;;;;14.34;100.00;97333.03;5072838;28;19995;-70
2022/10/15 02:40:44;;;;;;;;;;;;;;;14.38;100.00;97328.66;5077762;28;19964;-70
2022/10/15 02:43:12;;;;;;;;;;;;;;;14.23;100.00;97335.09;5077193;28;19924;-70
2022/10/15 02:45:39;;;;;;;;;;;;;;;14.20;100.00;97329.53;5065639;28;19960;-70
2022/10/15 02:48:06;;;;;;;;;;;;;;;14.27;100.00;97335.28;5073777;28;19928;-71
2022/10/15 02:50:32;;;;;;;;;;;;;;;14.17;100.00;97322.06;5076676;28;19960;-71
2022/10/15 02:53:00;;;;;;;;;;;;;;;14.18;100.00;97316.38;5076229;28;19960;-70
2022/10/15 02:55:27;;;;;;;;;;;;;;;14.25;100.00;97310.63;5075211;28;19936;-70
2022/10/15 02:57:53;;;;;;;;;;;;;;;14.25;100.00;97316.00;5073642;28;19925;-71
2022/10/15 03:00:20;;;;;;;;;;;;;;;14.35;100.00;97313.94;5072977;28;19924;-71
2022/10/15 03:02:46;;;;;;;;;;;;;;;14.26;100.00;97322.97;5077266;28;19928;-71
2022/10/15 03:05:13;;;;;;;;;;;;;;;14.21;100.00;97315.78;5077434;28;19924;-70
2022/10/15 03:07:39;;;;;;;;;;;;;;;14.27;100.00;97309.22;5065953;28;19963;-71
2022/10/15 03:10:07;;;;;;;;;;;;;;;14.24;100.00;97317.06;5073547;28;20328;-71
2022/10/15 03:12:34;;;;;;;;;;;;;;;14.22;100.00;97324.66;5076073;28;20060;-71
2022/10/15 03:15:01;;;;;;;;;;;;;;;14.19;100.00;97306.44;5075651;28;19924;-71
2022/10/15 03:17:27;;;;;;;;;;;;;;;14.11;100.00;97313.34;5075774;28;19925;-71
2022/10/15 03:19:53;;;;;;;;;;;;;;;14.07;100.00;97302.41;5072670;28;19925;-70
2022/10/15 03:22:20;;;;;;;;;;;;;;;14.15;100.00;97303.56;5074484;28;19925;-71
2022/10/15 03:24:47;;;;;;;;;;;;;;;14.34;100.00;97311.53;5075382;28;22078;-71
2022/10/15 03:27:15;;;;;;;;;;;;;;;14.44;100.00;97300.56;5076982;28;20000;-71
2022/10/15 03:29:41;;;;;;;;;;;;;;;14.34;100.00;97306.16;5065188;28;19955;-70
2022/10/15 03:32:07;;;;;;;;;;;;;;;14.34;100.00;97303.47;5073482;28;19956;-71
2022/10/15 03:34:34;;;;;;;;;;;;;;;14.22;100.00;97293.22;5076080;28;20366;-71
2022/10/15 03:37:00;;;;;;;;;;;;;;;14.21;100.00;97294.31;5076711;28;19925;-70
2022/10/15 03:39:27;;;;;;;;;;;;;;;14.20;100.00;97297.31;5075013;28;19932;-71
2022/10/15 03:41:53;;;;;;;;;;;;;;;14.17;100.00;97301.41;5073010;28;19985;-71
2022/10/15 03:44:21;;;;;;;;;;;;;;;14.13;100.00;97296.91;5074278;28;19989;-70
2022/10/15 03:46:47;;;;;;;;;;;;;;;14.11;100.00;97291.84;5077016;28;19984;-70
2022/10/15 03:49:13;;;;;;;;;;;;;;;14.21;100.00;97296.19;5080392;28;19924;-70
2022/10/15 03:51:40;;;;;;;;;;;;;;;14.24;100.00;97291.00;5075296;28;19967;-71
2022/10/15 03:54:06;;;;;;;;;;;;;;;14.21;100.00;97285.44;5074395;28;19920;-70
2022/10/15 03:56:33;;;;;;;;;;;;;;;14.20;100.00;97294.63;5077561;28;20261;-70
2022/10/15 03:58:59;;;;;;;;;;;;;;;14.16;100.00;97294.44;5076545;28;19952;-70
2022/10/15 04:01:27;;;;;;;;;;;;;;;14.16;100.00;97301.69;5075474;28;20317;-71
2022/10/15 04:03:53;;;;;;;;;;;;;;;14.17;100.00;97289.84;5079418;28;20161;-70
2022/10/15 04:06:20;;;;;;;;;;;;;;;14.14;100.00;97288.56;5077870;28;19924;-70
2022/10/15 04:08:46;;;;;;;;;;;;;;;14.11;100.00;97291.84;5075506;28;19927;-71
2022/10/15 04:11:12;;;;;;;;;;;;;;;14.10;100.00;97284.09;5091864;28;19967;-71
2022/10/15 04:13:39;;;;;;;;;;;;;;;14.07;100.00;97286.28;5068062;28;19925;-71
2022/10/15 04:16:06;;;;;;;;;;;;;;;14.20;100.00;97278.50;5076036;28;19960;-70
2022/10/15 04:18:33;;;;;;;;;;;;;;;14.27;100.00;97276.19;5078653;28;19988;-70
2022/10/15 04:21:00;;;;;;;;;;;;;;;14.18;100.00;97288.75;5078214;28;19991;-70
2022/10/15 04:23:26;;;;;;;;;;;;;;;14.13;100.00;97278.13;5077728;28;19925;-70
2022/10/15 04:25:53;;;;;;;;;;;;;;;14.26;100.00;97288.03;5075987;28;19980;-70
2022/10/15 04:28:19;;;;;;;;;;;;;;;14.27;100.00;97289.63;5075715;28;19924;-70
2022/10/15 04:30:46;;;;;;;;;;;;;;;14.21;100.00;97280.06;5079394;28;19924;-70
2022/10/15 04:33:12;;;;;;;;;;;;;;;14.20;100.00;97278.50;5079744;28;19966;-70
2022/10/15 04:35:40;;;;;;;;;;;;;;;14.23;100.00;97277.91;5067777;28;19924;-70
2022/10/15 04:38:06;;;;;;;;;;;;;;;14.34;100.00;97282.78;5076044;28;19958;-71
2022/10/15 04:40:33;;;;;;;;;;;;;;;14.26;100.00;97275.41;5078827;28;19928;-70
2022/10/15 04:42:59;;;;;;;;;;;;;;;14.22;100.00;97279.78;5079270;28;19924;-71
2022/10/15 04:45:26;;;;;;;;;;;;;;;14.24;100.00;97284.84;5077733;28;19939;-71
2022/10/15 04:47:52;;;;;;;;;;;;;;;14.26;100.00;97282.69;5091366;28;19989;-70
2022/10/15 04:50:19;;;;;;;;;;;;;;;14.28;100.00;97285.84;5075618;28;19928;-70
2022/10/15 04:52:47;;;;;;;;;;;;;;;14.28;100.00;97280.47;5078201;28;19985;-70
2022/10/15 04:55:14;;;;;;;;;;;;;;;14.24;100.00;97274.09;5077963;28;19925;-70
2022/10/15 04:57:40;;;;;;;;;;;;;;;14.19;100.00;97277.72;5067895;28;19971;-70
2022/10/15 05:00:07;;;;;;;;;;;;;;;14.21;100.00;97288.94;5075445;28;19982;-70
2022/10/15 05:02:33;;;;;;;;;;;;;;;14.19;100.00;97279.59;5078784;28;19996;-70
2022/10/15 05:04:59;;;;;;;;;;;;;;;14.18;100.00;97272.63;5095635;28;19988;-70
2022/10/15 05:07:26;;;;;;;;;;;;;;;14.21;100.00;97269.34;5078055;28;19925;-70
2022/10/15 05:09:53;;;;;;;;;;;;;;;14.22;100.00;97270.94;5074795;28;19929;-70
2022/10/15 05:12:20;;;;;;;;;;;;;;;14.15;100.00;97260.59;5076871;28;19924;-70
2022/10/15 05:14:46;;;;;;;;;;;;;;;14.19;100.00;97266.16;5078227;28;19935;-71
2022/10/15 05:17:12;;;;;;;;;;;;;;;14.21;100.00;97272.03;5095337;28;19992;-71
2022/10/15 05:19:39;;;;;;;;;;;;;;;14.18;100.00;97269.94;5068015;28;19984;-71
2022/10/15 05:22:05;;;;;;;;;;;;;;;14.15;100.00;97260.59;5075892;28;20027;-70
2022/10/15 05:24:31;;;;;;;;;;;;;;;14.17;100.00;97263.81;5078543;28;19960;-69
2022/10/15 05:26:59;;;;;;;;;;;;;;;14.14;100.00;97271.66;5079658;28;19924;-69
2022/10/15 05:29:26;;;;;;;;;;;;;;;14.16;100.00;97275.63;5076560;28;19948;-70
2022/10/15 05:31:52;;;;;;;;;;;;;;;14.16;100.00;97274.81;5075905;28;19932;-70
2022/10/15 05:34:18;;;;;;;;;;;;;;;14.18;100.00;97276.13;5076124;28;19960;-70
2022/10/15 05:36:45;;;;;;;;;;;;;;;14.16;100.00;97281.00;5078826;28;19996;-70
2022/10/15 05:39:12;;;;;;;;;;;;;;;14.17;100.00;97282.59;5079099;28;19938;-70
2022/10/15 05:41:38;;;;;;;;;;;;;;;14.23;100.00;97283.28;5074721;28;19934;-70
2022/10/15 05:44:06;;;;;;;;;;;;;;;14.28;100.00;97286.66;5073808;28;19951;-70
2022/10/15 05:46:32;;;;;;;;;;;;;;;14.32;100.00;97287.63;5077643;28;19968;-70
2022/10/15 05:48:59;;;;;;;;;;;;;;;14.31;100.00;97294.09;5078608;28;19924;-71
2022/10/15 05:51:26;;;;;;;;;;;;;;;14.32;100.00;97298.38;5092894;28;19924;-70
2022/10/15 05:53:53;;;;;;;;;;;;;;;14.21;100.00;97297.00;5075489;28;19956;-71
2022/10/15 05:56:19;;;;;;;;;;;;;;;14.19;100.00;97299.19;5074444;28;19957;-71
2022/10/15 05:58:46;;;;;;;;;;;;;;;14.18;100.00;97288.75;5078592;28;19963;-71
2022/10/15 06:01:14;;;;;;;;;;;;;;;14.17;100.00;97297.91;5078270;28;19928;-70
2022/10/15 06:03:40;;;;;;;;;;;;;;;14.21;100.00;97304.25;5066274;28;19924;-70
2022/10/15 06:06:13;;;;;;;;;;;;;;;14.17;100.00;97295.22;5074125;28;19924;-71
2022/10/15 06:08:39;;;;;;;;;;;;;;;14.17;100.00;97301.41;5065907;28;19925;-71
2022/10/15 06:11:05;;;;;;;;;;;;;;;14.18;100.00;97299.47;5074018;28;19933;-70
2022/10/15 06:13:32;;;;;;;;;;;;;;;14.20;100.00;97302.69;5076844;28;19924;-71
2022/10/15 06:15:58;;;;;;;;;;;;;;;14.19;100.00;97303.75;5093147;28;20019;-71
2022/10/15 06:18:26;;;;;;;;;;;;;;;14.26;100.00;97306.84;5091496;28;19989;-69
2022/10/15 06:20:52;;;;;;;;;;;;;;;14.24;100.00;97304.44;5073875;28;19992;-70
2022/10/15 06:23:19;;;;;;;;;;;;;;;14.18;100.00;97312.91;5071705;28;19992;-70
2022/10/15 06:25:45;;;;;;;;;;;;;;;14.19;100.00;97319.88;5077545;28;19924;-70
2022/10/15 06:28:12;;;;;;;;;;;;;;;14.14;100.00;97322.69;5078076;28;19962;-70
2022/10/15 06:30:38;;;;;;;;;;;;;;;14.19;100.00;97314.50;5074703;28;19924;-71
2022/10/15 06:33:04;;;;;;;;;;;;;;;14.25;100.00;97329.41;5074766;28;19939;-70
2022/10/15 06:35:34;;;;;;;;;;;;;;;14.24;100.00;97338.56;5075880;28;20016;-70
2022/10/15 06:38:01;;;;;;;;;;;;;;;14.18;100.00;97332.50;5077185;28;19946;-70
2022/10/15 06:40:27;;;;;;;;;;;;;;;14.17;100.00;97346.25;5074085;28;20004;-70
2022/10/15 06:42:53;;;;;;;;;;;;;;;14.24;100.00;97341.25;5073432;28;19936;-70
2022/10/15 06:45:20;;;;;;;;;;;;;;;14.19;100.00;97350.22;5074426;28;20291;-70
2022/10/15 06:47:46;;;;;;;;;;;;;;;14.16;100.00;97344.66;5077098;28;19924;-70
2022/10/15 06:50:13;;;;;;;;;;;;;;;14.20;100.00;97348.31;5077150;28;19925;-71
2022/10/15 06:52:40;;;;;;;;;;;;;;;14.27;100.00;97356.75;5075583;28;20439;-71
2022/10/15 06:55:07;;;;;;;;;;;;;;;14.38;100.00;97356.31;5077538;28;19925;-71
2022/10/15 06:57:33;;;;;;;;;;;;;;;14.52;100.00;97373.19;5074764;28;19956;-71
2022/10/15 07:00:00;;;;;;;;;;;;;;;14.65;100.00;97370.78;5073651;28;20001;-71
2022/10/15 07:02:26;;;;;;;;;;;;;;;14.68;100.00;97370.16;5075362;28;20074;-70
2022/10/15 07:04:52;;;;;;;;;;;;;;;14.49;100.00;97373.78;5076949;28;19946;-70
2022/10/15 07:07:19;;;;;;;;;;;;;;;14.48;100.00;97379.47;5076547;28;20214;-71
2022/10/15 07:09:47;;;;;;;;;;;;;;;14.55;100.00;97374.47;5073900;28;19929;-70
2022/10/15 07:12:15;;;;;;;;;;;;;;;14.53;100.00;97379.34;5073606;28;20015;-70
2022/10/15 07:14:41;;;;;;;;;;;;;;;14.58;100.00;97373.88;5065236;28;20217;-70
2022/10/15 07:17:07;;;;;;;;;;;;;;;14.57;100.00;97383.84;5073342;28;19925;-71
2022/10/15 07:19:34;;;;;;;;;;;;;;;14.59;100.00;97383.53;5075930;28;19925;-70
2022/10/15 07:22:00;;;;;;;;;;;;;;;14.57;100.00;97380.34;5077414;28;20032;-71
2022/10/15 07:24:26;;;;;;;;;;;;;;;14.56;100.00;97389.50;5079038;28;19996;-71
2022/10/15 07:26:54;;;;;;;;;;;;;;;14.55;100.00;97387.91;5096161;28;19931;-70
2022/10/15 07:29:20;;;;;;;;;;;;;;;14.51;100.00;97392.31;5079599;28;19988;-71
2022/10/15 07:31:47;;;;;;;;;;;;;;;14.51;100.00;97403.81;5077219;28;19964;-71
2022/10/15 07:34:13;;;;;;;;;;;;;;;14.56;100.00;97406.44;5077351;28;19967;-70
2022/10/15 07:36:39;;;;;;;;;;;;;;;14.59;100.00;97397.78;5068676;28;19939;-71
2022/10/15 07:39:06;;;;;;;;;;;;;;;14.62;100.00;97409.00;5076998;28;20000;-71
2022/10/15 07:41:32;;;;;;;;;;;;;;;14.62;100.00;97414.38;5078339;28;19948;-71
2022/10/15 07:44:00;;;;;;;;;;;;;;;14.62;100.00;97409.00;5080349;28;19931;-71
2022/10/15 07:46:26;;;;;;;;;;;;;;;14.61;100.00;97418.19;5078647;28;19988;-71
2022/10/15 07:48:53;;;;;;;;;;;;;;;14.60;100.00;97412.00;5076740;28;19961;-70
2022/10/15 07:51:19;;;;;;;;;;;;;;;14.68;100.00;97413.16;5077299;28;19925;-71
2022/10/15 07:53:46;;;;;;;;;;;;;;;14.76;100.00;97426.69;5082265;28;19936;-71
2022/10/15 07:56:14;;;;;;;;;;;;;;;14.77;100.00;97428.28;5076612;28;19929;-71
2022/10/15 07:58:41;;;;;;;;;;;;;;;14.81;100.00;97426.59;5068572;28;19925;-70
2022/10/15 08:01:10;;;;;;;;;;;;;;;14.89;100.00;97431.25;5076546;28;19932;-70
2022/10/15 08:03:37;;;;;;;;;;;;;;;14.95;100.00;97426.56;5079688;28;19971;-71
2022/10/15 08:06:04;;;;;;;;;;;;;;;14.87;100.00;97432.66;5080019;28;19935;-71
2022/10/15 08:08:31;;;;;;;;;;;;;;;14.90;100.00;97434.75;5078048;28;19925;-71
2022/10/15 08:10:58;;;;;;;;;;;;;;;14.96;100.00;97428.97;5076376;28;19925;-70
2022/10/15 08:13:24;;;;;;;;;;;;;;;14.96;100.00;97430.84;5076318;28;19956;-71
2022/10/15 08:15:50;;;;;;;;;;;;;;;14.96;100.00;97431.66;5078404;28;20362;-72
2022/10/15 08:18:18;;;;;;;;;;;;;;;14.96;100.00;97437.03;5079479;28;20169;-73
2022/10/15 08:20:44;;;;;;;;;;;;;;;14.92;100.00;97440.59;5076407;28;19952;-71
2022/10/15 08:23:14;;;;;;;;;;;;;;;14.92;100.00;97446.78;5081980;28;20476;-70
2022/10/15 08:25:40;;;;;;;;;;;;;;;14.95;100.00;97448.88;5083867;28;20357;-71
2022/10/15 08:28:08;;;;;;;;;;;;;;;15.00;100.00;97456.84;5076000;28;19985;-69
2022/10/15 08:30:35;;;;;;;;;;;;;;;15.05;100.00;97458.59;5078745;28;19964;-71
2022/10/15 08:33:01;;;;;;;;;;;;;;;15.04;100.00;97460.50;5078532;28;19929;-71
2022/10/15 08:35:34;;;;;;;;;;;;;;;15.03;100.00;97448.16;5076106;28;19979;-70
2022/10/15 08:38:00;;;;;;;;;;;;;;;15.10;100.00;97453.13;5074226;28;20428;-71
2022/10/15 08:40:26;;;;;;;;;;;;;;;15.11;100.00;97455.50;5076690;28;19956;-71
2022/10/15 08:42:53;;;;;;;;;;;;;;;15.25;100.00;97462.75;5078250;28;19966;-70
2022/10/15 08:45:23;;;;;;;;;;;;;;;15.28;100.00;97462.94;5078505;28;19925;-70
2022/10/15 08:47:52;;;;;;;;;;;;;;;15.37;100.00;97468.38;5091116;28;19995;-70
2022/10/15 08:50:26;;;;;;;;;;;;;;;15.41;100.00;97480.91;5074643;28;19925;-70
2022/10/15 08:52:55;;;;;;;;;;;;;;;15.45;100.00;97470.34;5078895;28;19925;-70
2022/10/15 08:55:22;;;;;;;;;;;;;;;15.49;100.00;97479.44;5076741;28;19952;-70
2022/10/15 08:57:53;;;;;;;;;;;;;;;15.54;100.00;97482.00;5075392;28;19995;-69
2022/10/15 09:00:20;;;;;;;;;;;;;;;15.27;100.00;97487.44;5076422;28;19988;-69
2022/10/15 09:02:51;;;;;;;;;;;;;;;15.30;100.00;97476.06;5079512;28;19935;-70
2022/10/15 09:05:24;;;;;;;;;;;;;;;15.34;100.00;97475.19;5078526;28;20277;-71
2022/10/15 09:07:53;;;;;;;;;;;;;;;15.52;100.00;97476.13;5075475;28;19924;-71
2022/10/15 09:10:27;;;;;;;;;;;;;;;15.56;100.00;97480.63;5076054;28;19935;-71
2022/10/15 09:12:58;;;;;;;;;;;;;;;15.53;100.00;97481.22;5094317;28;19924;-71
2022/10/15 09:15:25;;;;;;;;;;;;;;;15.51;100.00;97479.91;5077316;28;19935;-71
2022/10/15 09:17:52;;;;;;;;;;;;;;;15.52;100.00;97484.22;5075183;28;20374;-70
2022/10/15 09:20:21;;;;;;;;;;;;;;;15.49;100.00;97482.13;5075701;28;19992;-70
2022/10/15 09:22:50;;;;;;;;;;;;;;;15.68;100.00;97484.66;5078512;28;19931;-71
2022/10/15 09:25:18;;;;;;;;;;;;;;;15.77;100.00;97494.38;5076694;28;19931;-70
2022/10/15 09:27:47;;;;;;;;;;;;;;;15.79;100.00;97497.56;5074984;28;19975;-70
2022/10/15 09:30:24;;;;;;;;;;;;;;;15.92;100.00;97502.09;5073369;28;20009;-70
2022/10/15 09:32:52;;;;;;;;;;;;;;;15.93;100.00;97492.91;5067800;28;19988;-70
2022/10/15 09:35:22;;;;;;;;;;;;;;;15.90;100.00;97498.91;5075262;28;20201;-70
2022/10/15 09:37:51;;;;;;;;;;;;;;;16.15;100.00;97492.09;5077944;28;19936;-70
2022/10/15 09:40:27;;;;;;;;;;;;;;;15.87;100.00;97510.31;5077542;28;20023;-70
2022/10/15 09:42:56;;;;;;;;;;;;;;;15.83;100.00;97503.94;5074640;28;19959;-70
2022/10/15 09:45:23;;;;;;;;;;;;;;;15.80;100.00;97507.22;5075346;28;20376;-70
2022/10/15 09:47:50;;;;;;;;;;;;;;;15.98;100.00;97514.31;5077857;28;19925;-71
2022/10/15 09:50:17;;;;;;;;;;;;;;;15.98;100.00;97518.91;5077542;28;19984;-71
2022/10/15 09:52:56;;;;;;;;;;;;;;;15.89;100.00;97518.84;5075569;28;19971;-71
2022/10/15 09:55:33;;;;;;;;;;;;;;;15.92;100.00;97517.44;5076573;28;19931;-70
2022/10/15 09:58:03;;;;;;;;;;;;;;;15.95;100.00;97527.59;5073277;28;19987;-71
2022/10/15 10:00:44;;;;;;;;;;;;;;;15.88;100.00;97528.03;5076858;28;19925;-71
2022/10/15 10:03:14;;;;;;;;;;;;;;;15.86;100.00;97524.84;5077883;28;19925;-71
2022/10/15 10:05:42;;;;;;;;;;;;;;;15.84;100.00;97531.66;5065153;28;20447;-71
2022/10/15 10:08:10;;;;;;;;;;;;;;;15.90;100.00;97528.53;5074640;28;19925;-71
2022/10/15 10:10:37;;;;;;;;;;;;;;;15.88;100.00;97536.09;5077874;28;19924;-71
2022/10/15 10:13:07;;;;;;;;;;;;;;;15.93;100.00;97536.00;5078006;28;19924;-71
2022/10/15 10:15:35;;;;;;;;;;;;;;;16.25;100.00;97543.00;5074980;28;19960;-72
2022/10/15 10:18:04;;;;;;;;;;;;;;;16.09;100.00;97545.28;5072617;28;19925;-71
2022/10/15 10:20:31;;;;;;;;;;;;;;;16.12;100.00;97538.50;5074690;28;19925;-71
2022/10/15 10:22:58;;;;;;;;;;;;;;;16.01;100.00;97542.53;5077188;28;19996;-72
2022/10/15 10:25:30;;;;;;;;;;;;;;;16.09;100.00;97553.38;5074632;28;19924;-71
2022/10/15 10:27:58;;;;;;;;;;;;;;;16.15;100.00;97552.13;5073553;28;19925;-71
2022/10/15 10:30:25;;;;;;;;;;;;;;;15.98;100.00;97543.94;5073764;28;19996;-71
2022/10/15 10:32:56;;;;;;;;;;;;;;;16.06;100.00;97548.59;5076980;28;20146;-72
2022/10/15 10:35:23;;;;;;;;;;;;;;;16.09;100.00;97545.28;5075901;28;19931;-71
2022/10/15 10:37:50;;;;;;;;;;;;;;;16.27;100.00;97556.19;5073355;28;19931;-71
2022/10/15 10:40:22;;;;;;;;;;;;;;;16.18;100.00;97554.22;5073712;28;19983;-71
2022/10/15 10:42:48;;;;;;;;;;;;;;;16.19;100.00;97561.19;5076804;28;19936;-70
2022/10/15 10:45:19;;;;;;;;;;;;;;;16.18;100.00;97559.59;5077385;28;19988;-72
2022/10/15 10:47:47;;;;;;;;;;;;;;;16.19;100.00;97561.19;5065928;28;19925;-71
2022/10/15 10:50:26;;;;;;;;;;;;;;;16.47;100.00;97558.34;5073631;28;19936;-72
2022/10/15 10:52:53;;;;;;;;;;;;;;;16.34;100.00;97553.84;5071216;28;19980;-73
2022/10/15 10:55:23;;;;;;;;;;;;;;;16.48;100.00;97558.06;5076322;28;19924;-70
2022/10/15 10:57:50;;;;;;;;;;;;;;;16.36;100.00;97559.72;5072867;28;19925;-71
2022/10/15 11:00:19;;;;;;;;;;;;;;;16.43;100.00;97568.19;5073346;28;20058;-72
2022/10/15 11:02:46;;;;;;;;;;;;;;;16.68;100.00;97557.53;5076865;28;19947;-72
2022/10/15 11:05:13;;;;;;;;;;;;;;;16.77;100.00;97565.69;5075479;28;19989;-71
2022/10/15 11:07:46;;;;;;;;;;;;;;;16.99;100.00;97567.50;5073401;28;19967;-71
2022/10/15 11:10:17;;;;;;;;;;;;;;;16.76;100.00;97550.59;5073397;28;19955;-72
2022/10/15 11:12:48;;;;;;;;;;;;;;;16.93;100.00;97558.75;5065448;28;19956;-72
2022/10/15 11:15:20;;;;;;;;;;;;;;;17.12;100.00;97553.88;5073224;28;19925;-72
2022/10/15 11:17:53;;;;;;;;;;;;;;;17.20;100.00;97547.72;5065745;28;19952;-71
2022/10/15 11:20:22;;;;;;;;;;;;;;;17.03;100.00;97555.78;5072353;28;19925;-72
2022/10/15 11:22:55;;;;;;;;;;;;;;;16.70;100.00;97544.56;5077374;28;19967;-72
2022/10/15 11:25:26;;;;;;;;;;;;;;;16.95;100.00;97551.16;5075761;28;20015;-72
2022/10/15 11:27:58;;;;;;;;;;;;;;;16.94;100.00;97548.75;5073004;28;19929;-72
2022/10/15 11:30:31;;;;;;;;;;;;;;;16.79;100.00;97549.19;5074505;28;20281;-72
2022/10/15 11:33:02;;;;;;;;;;;;;;;17.04;100.00;97548.47;5076557;28;19929;-72
2022/10/15 11:35:36;;;;;;;;;;;;;;;16.73;100.00;97543.13;5074600;28;19967;-72
2022/10/15 11:38:12;;;;;;;;;;;;;;;16.71;100.00;97545.34;5073750;28;19920;-73
2022/10/15 11:40:46;;;;;;;;;;;;;;;16.90;100.00;97547.78;5076719;28;19928;-72
2022/10/15 11:43:16;;;;;;;;;;;;;;;17.03;100.00;97542.28;5092627;28;20312;-74
2022/10/15 11:45:50;;;;;;;;;;;;;;;16.64;100.00;97540.41;5067988;28;19936;-73
2022/10/15 11:48:23;;;;;;;;;;;;;;;16.64;100.00;97539.59;5077291;28;19936;-74
2022/10/15 11:50:52;;;;;;;;;;;;;;;16.61;100.00;97546.41;5078562;28;19924;-73
2022/10/15 11:53:26;;;;;;;;;;;;;;;16.77;100.00;97541.41;5076434;28;19966;-70
2022/10/15 11:55:57;;;;;;;;;;;;;;;16.97;100.00;97535.44;5073598;28;19983;-71
2022/10/15 11:58:28;;;;;;;;;;;;;;;17.22;100.00;97542.00;5073992;28;19944;-71
2022/10/15 12:00:56;;;;;;;;;;;;;;;17.40;100.00;97545.53;5075786;28;19932;-72
2022/10/15 12:03:25;;;;;;;;;;;;;;;17.45;100.00;97540.00;5075410;28;19924;-73
2022/10/15 12:05:53;;;;;;;;;;;;;;;17.55;100.00;97542.38;5072812;28;20015;-73
2022/10/15 12:08:20;;;;;;;;;;;;;;;17.11;100.00;97543.44;5074518;28;20058;-75
2022/10/15 12:10:59;;;;;;;;;;;;;;;17.10;100.00;97547.22;5079661;28;19971;-74
2022/10/15 12:13:31;;;;;;;;;;;;;;;17.08;100.00;97546.75;5078413;28;19925;-74
2022/10/15 12:16:04;;;;;;;;;;;;;;;17.02;100.00;97539.91;5076395;28;19974;-73
2022/10/15 12:18:36;;;;;;;;;;;;;;;17.16;100.00;97544.06;5078369;28;19924;-73
2022/10/15 12:21:03;;;;;;;;;;;;;;;16.82;100.00;97540.47;5079441;28;19959;-72
2022/10/15 12:23:39;;;;;;;;;;;;;;;16.83;100.00;97542.84;5076393;28;19995;-71
2022/10/15 12:26:25;;;;;;;;;;;;;;;17.01;100.00;97536.41;5076127;28;19958;-77
2022/10/15 12:28:53;;;;;;;;;;;;;;;17.14;100.00;97545.50;5070418;28;19932;-74
2022/10/15 12:31:20;;;;;;;;;;;;;;;17.13;100.00;97547.38;5077464;28;20528;-76
2022/10/15 12:33:49;;;;;;;;;;;;;;;17.27;100.00;97544.56;5079287;28;19996;-75
2022/10/15 12:36:26;;;;;;;;;;;;;;;17.55;100.00;97542.38;5079379;28;19956;-76
2022/10/15 12:38:56;;;;;;;;;;;;;;;17.57;100.00;97545.59;5091707;28;19925;-76
2022/10/15 12:41:34;;;;;;;;;;;;;;;17.76;100.00;97544.16;5075815;28;19925;-76